PWSweather.com
Personal Weather Stations
Station Observations

LlefiĆ BadalonaES

Lat: 41.44, Lon: 2.2175

Elevation: 213.254

Station Type: oregon WMR918

http://www.estacionmeteorologicabadalonallefia.com

Latest ConditionsUpdated 1:11:24 PM GMT+01:01 Sunday, Jan 25, 2015
Currently Today's Max Today's Min Today's Average
Temperature 55.6°F13.1°C 56.2°F13.4°C 46.9°F8.3°C 51.5°F10.8°C
Dew Point 20.3°F-6.5°C 24.5°F-4.2°C 17.7°F-7.9°C 19.3°F-7.1°C
Winds 4.8 mph SSE7.7 kmh SSE 13.1 mph NE21.1 kmh NE - 4.7 mph 7.6 kmh
Wind Gusts 8.1 mph13.0 kmh 32.0 mph51.5 kmh - -
Humidity 25% 41% 25% 28%
Pressure 30.09 in1019.0 mb 30.12 in1020.0 mb 30.03 in1016.9 mb -
Hour Temp Dew Point Humidity Winds Wind Gusts Pressure Precip Precip Rate Daily Precip Total
01:11 PM 55.6°F13.1°C 20.3°F-6.5°C 25% 4.8 mph SSE7.7 kmh SSE 8.1 mph13.0 kmh 30.09 in1019.0 mb 0.00 in0.0 mm 0.00 in/hr0.0 mm/hr 0.00 in0.0 mm
01:01 PM 56.2°F13.4°C 20.8°F-6.2°C 25% 5.4 mph S8.7 kmh S 8.1 mph13.0 kmh 30.09 in1019.0 mb 0.00 in0.0 mm 0.00 in/hr0.0 mm/hr 0.00 in0.0 mm
12:51 PM 55.4°F13.0°C 20.1°F-6.6°C 25% 5.5 mph S8.9 kmh S 9.3 mph15.0 kmh 30.09 in1019.0 mb 0.00 in0.0 mm 0.00 in/hr0.0 mm/hr 0.00 in0.0 mm
12:41 PM 55.3°F12.9°C 21.0°F-6.1°C 26% 4.1 mph SE6.6 kmh SE 6.4 mph10.3 kmh 30.12 in1020.0 mb 0.00 in0.0 mm 0.00 in/hr0.0 mm/hr 0.00 in0.0 mm
12:31 PM 56.2°F13.4°C 20.8°F-6.2°C 25% 2.9 mph SSE4.7 kmh SSE 7.6 mph12.2 kmh 30.09 in1019.0 mb 0.00 in0.0 mm 0.00 in/hr0.0 mm/hr 0.00 in0.0 mm
12:21 PM 55.7°F13.2°C 20.3°F-6.5°C 25% Calm Calm -- 30.09 in1019.0 mb 0.00 in0.0 mm 0.00 in/hr0.0 mm/hr 0.00 in0.0 mm
12:11 PM 54.9°F12.7°C 21.5°F-5.8°C 27% Calm Calm -- 30.12 in1020.0 mb 0.00 in0.0 mm 0.00 in/hr0.0 mm/hr 0.00 in0.0 mm
12:01 PM 54.9°F12.7°C 21.5°F-5.8°C 27% 4.9 mph SE7.9 kmh SE 6.4 mph10.3 kmh 30.12 in1020.0 mb 0.00 in0.0 mm 0.00 in/hr0.0 mm/hr 0.00 in0.0 mm
11:51 AM 55.0°F12.8°C 21.6°F-5.8°C 27% 0.8 mph SE1.3 kmh SE 4.6 mph7.4 kmh 30.12 in1020.0 mb 0.00 in0.0 mm 0.00 in/hr0.0 mm/hr 0.00 in0.0 mm
11:41 AM 55.5°F13.1°C 20.2°F-6.6°C 25% 3.0 mph ESE4.8 kmh ESE 4.6 mph7.4 kmh 30.12 in1020.0 mb 0.00 in0.0 mm 0.00 in/hr0.0 mm/hr 0.00 in0.0 mm
11:31 AM 55.0°F12.8°C 21.6°F-5.8°C 27% 1.8 mph SE2.9 kmh SE 3.5 mph5.6 kmh 30.12 in1020.0 mb 0.00 in0.0 mm 0.00 in/hr0.0 mm/hr 0.00 in0.0 mm
11:21 AM 55.2°F12.9°C 21.8°F-5.7°C 27% 2.6 mph E4.2 kmh E 6.4 mph10.3 kmh 30.12 in1020.0 mb 0.00 in0.0 mm 0.00 in/hr0.0 mm/hr 0.00 in0.0 mm
11:11 AM 55.2°F12.9°C 21.8°F-5.7°C 27% 3.1 mph SSE5.0 kmh SSE 4.6 mph7.4 kmh 30.12 in1020.0 mb 0.00 in0.0 mm 0.00 in/hr0.0 mm/hr 0.00 in0.0 mm
11:01 AM 54.7°F12.6°C 21.3°F-5.9°C 27% 2.3 mph SE3.7 kmh SE 4.1 mph6.6 kmh 30.12 in1020.0 mb 0.00 in0.0 mm 0.00 in/hr0.0 mm/hr 0.00 in0.0 mm
10:51 AM 54.2°F12.3°C 20.9°F-6.2°C 27% Calm Calm 2.9 mph4.7 kmh 30.12 in1020.0 mb 0.00 in0.0 mm 0.00 in/hr0.0 mm/hr 0.00 in0.0 mm
10:41 AM 54.1°F12.3°C 20.8°F-6.2°C 27% 0.4 mph ENE0.6 kmh ENE 6.4 mph10.3 kmh 30.09 in1019.0 mb 0.00 in0.0 mm 0.00 in/hr0.0 mm/hr 0.00 in0.0 mm
10:31 AM 53.5°F11.9°C 20.3°F-6.5°C 27% Calm Calm -- 30.09 in1019.0 mb 0.00 in0.0 mm 0.00 in/hr0.0 mm/hr 0.00 in0.0 mm
10:21 AM 52.6°F11.4°C 19.5°F-6.9°C 27% Calm Calm -- 30.09 in1019.0 mb 0.00 in0.0 mm 0.00 in/hr0.0 mm/hr 0.00 in0.0 mm
10:11 AM 50.7°F10.4°C 18.8°F-7.3°C 28% 1.7 mph NW2.7 kmh NW -- 30.09 in1019.0 mb 0.00 in0.0 mm 0.00 in/hr0.0 mm/hr 0.00 in0.0 mm
10:01 AM 50.5°F10.3°C 18.6°F-7.4°C 28% Calm Calm 3.5 mph5.6 kmh 30.12 in1020.0 mb 0.00 in0.0 mm 0.00 in/hr0.0 mm/hr 0.00 in0.0 mm
09:51 AM 49.7°F9.8°C 17.9°F-7.8°C 28% Calm Calm -- 30.12 in1020.0 mb 0.00 in0.0 mm 0.00 in/hr0.0 mm/hr 0.00 in0.0 mm
09:41 AM 50.0°F10.0°C 18.1°F-7.7°C 28% 2.2 mph N3.5 kmh N 3.5 mph5.6 kmh 30.09 in1019.0 mb 0.00 in0.0 mm 0.00 in/hr0.0 mm/hr 0.00 in0.0 mm
09:31 AM 49.5°F9.7°C 17.7°F-7.9°C 28% 2.5 mph NNW4.0 kmh NNW 4.6 mph7.4 kmh 30.09 in1019.0 mb 0.00 in0.0 mm 0.00 in/hr0.0 mm/hr 0.00 in0.0 mm
09:21 AM 49.5°F9.7°C 17.7°F-7.9°C 28% 3.2 mph NW5.1 kmh NW 7.0 mph11.3 kmh 30.09 in1019.0 mb 0.00 in0.0 mm 0.00 in/hr0.0 mm/hr 0.00 in0.0 mm
09:11 AM 51.3°F10.7°C 19.2°F-7.1°C 28% 0.6 mph NW1.0 kmh NW 5.2 mph8.4 kmh 30.09 in1019.0 mb 0.00 in0.0 mm 0.00 in/hr0.0 mm/hr 0.00 in0.0 mm
09:01 AM 51.1°F10.6°C 19.1°F-7.2°C 28% 2.6 mph NW4.2 kmh NW 5.2 mph8.4 kmh 30.09 in1019.0 mb 0.00 in0.0 mm 0.00 in/hr0.0 mm/hr 0.00 in0.0 mm
08:51 AM 50.5°F10.3°C 18.6°F-7.4°C 28% 2.1 mph N3.4 kmh N 3.5 mph5.6 kmh 30.09 in1019.0 mb 0.00 in0.0 mm 0.00 in/hr0.0 mm/hr 0.00 in0.0 mm
08:41 AM 50.4°F10.2°C 18.4°F-7.6°C 28% 4.0 mph NW6.4 kmh NW 6.4 mph10.3 kmh 30.09 in1019.0 mb 0.00 in0.0 mm 0.00 in/hr0.0 mm/hr 0.00 in0.0 mm
08:31 AM 50.2°F10.1°C 18.3°F-7.6°C 28% 2.7 mph NW4.3 kmh NW 4.1 mph6.6 kmh 30.09 in1019.0 mb 0.00 in0.0 mm 0.00 in/hr0.0 mm/hr 0.00 in0.0 mm
08:21 AM 50.0°F10.0°C 18.1°F-7.7°C 28% Calm Calm -- 30.09 in1019.0 mb 0.00 in0.0 mm 0.00 in/hr0.0 mm/hr 0.00 in0.0 mm
08:11 AM 50.0°F10.0°C 18.1°F-7.7°C 28% 2.8 mph NW4.5 kmh NW 4.1 mph6.6 kmh 30.09 in1019.0 mb 0.00 in0.0 mm 0.00 in/hr0.0 mm/hr 0.00 in0.0 mm
08:01 AM 50.4°F10.2°C 18.4°F-7.6°C 28% 3.5 mph W5.6 kmh W 8.1 mph13.0 kmh 30.09 in1019.0 mb 0.00 in0.0 mm 0.00 in/hr0.0 mm/hr 0.00 in0.0 mm
07:51 AM 50.0°F10.0°C 18.1°F-7.7°C 28% 4.8 mph W7.7 kmh W 7.0 mph11.3 kmh 30.09 in1019.0 mb 0.00 in0.0 mm 0.00 in/hr0.0 mm/hr 0.00 in0.0 mm
07:41 AM 49.8°F9.9°C 18.0°F-7.8°C 28% 4.4 mph WNW7.1 kmh WNW 11.3 mph18.2 kmh 30.09 in1019.0 mb 0.00 in0.0 mm 0.00 in/hr0.0 mm/hr 0.00 in0.0 mm
07:31 AM 49.6°F9.8°C 17.8°F-7.9°C 28% 4.9 mph WSW7.9 kmh WSW 8.1 mph13.0 kmh 30.06 in1017.9 mb 0.00 in0.0 mm 0.00 in/hr0.0 mm/hr 0.00 in0.0 mm
07:21 AM 49.6°F9.8°C 17.8°F-7.9°C 28% Calm Calm 3.5 mph5.6 kmh 30.06 in1017.9 mb 0.00 in0.0 mm 0.00 in/hr0.0 mm/hr 0.00 in0.0 mm
07:11 AM 49.8°F9.9°C 18.0°F-7.8°C 28% 3.5 mph WNW5.6 kmh WNW 5.2 mph8.4 kmh 30.06 in1017.9 mb 0.00 in0.0 mm 0.00 in/hr0.0 mm/hr 0.00 in0.0 mm
07:01 AM 50.4°F10.2°C 18.4°F-7.6°C 28% 2.9 mph WSW4.7 kmh WSW 5.2 mph8.4 kmh 30.06 in1017.9 mb 0.00 in0.0 mm 0.00 in/hr0.0 mm/hr 0.00 in0.0 mm
06:51 AM 50.7°F10.4°C 18.8°F-7.3°C 28% Calm Calm -- 30.06 in1017.9 mb 0.00 in0.0 mm 0.00 in/hr0.0 mm/hr 0.00 in0.0 mm
06:41 AM 50.9°F10.5°C 18.9°F-7.3°C 28% 0.7 mph SE1.1 kmh SE 5.2 mph8.4 kmh 30.06 in1017.9 mb 0.00 in0.0 mm 0.00 in/hr0.0 mm/hr 0.00 in0.0 mm
06:31 AM 50.9°F10.5°C 18.9°F-7.3°C 28% 2.6 mph WNW4.2 kmh WNW 8.1 mph13.0 kmh 30.03 in1016.9 mb 0.00 in0.0 mm 0.00 in/hr0.0 mm/hr 0.00 in0.0 mm
06:21 AM 50.7°F10.4°C 18.8°F-7.3°C 28% 0.8 mph N1.3 kmh N 9.9 mph15.9 kmh 30.03 in1016.9 mb 0.00 in0.0 mm 0.00 in/hr0.0 mm/hr 0.00 in0.0 mm
06:11 AM 50.7°F10.4°C 18.8°F-7.3°C 28% 5.7 mph N9.2 kmh N 8.1 mph13.0 kmh 30.03 in1016.9 mb 0.00 in0.0 mm 0.00 in/hr0.0 mm/hr 0.00 in0.0 mm
06:01 AM 50.7°F10.4°C 18.8°F-7.3°C 28% 5.9 mph NNW9.5 kmh NNW 13.7 mph22.0 kmh 30.03 in1016.9 mb 0.00 in0.0 mm 0.00 in/hr0.0 mm/hr 0.00 in0.0 mm
05:51 AM 50.5°F10.3°C 18.6°F-7.4°C 28% 4.4 mph N7.1 kmh N 14.2 mph22.9 kmh 30.03 in1016.9 mb 0.00 in0.0 mm 0.00 in/hr0.0 mm/hr 0.00 in0.0 mm
05:41 AM 50.4°F10.2°C 18.4°F-7.6°C 28% 4.8 mph NW7.7 kmh NW 7.0 mph11.3 kmh 30.03 in1016.9 mb 0.00 in0.0 mm 0.00 in/hr0.0 mm/hr 0.00 in0.0 mm
05:31 AM 50.4°F10.2°C 18.4°F-7.6°C 28% 6.0 mph NNW9.7 kmh NNW 19.5 mph31.4 kmh 30.03 in1016.9 mb 0.00 in0.0 mm 0.00 in/hr0.0 mm/hr 0.00 in0.0 mm
05:21 AM 50.4°F10.2°C 18.4°F-7.6°C 28% 4.9 mph SW7.9 kmh SW 8.1 mph13.0 kmh 30.03 in1016.9 mb 0.00 in0.0 mm 0.00 in/hr0.0 mm/hr 0.00 in0.0 mm
05:11 AM 50.4°F10.2°C 18.4°F-7.6°C 28% 7.1 mph N11.4 kmh N 17.1 mph27.5 kmh 30.03 in1016.9 mb 0.00 in0.0 mm 0.00 in/hr0.0 mm/hr 0.00 in0.0 mm
05:01 AM 50.4°F10.2°C 18.4°F-7.6°C 28% 8.0 mph N12.9 kmh N 13.1 mph21.1 kmh 30.03 in1016.9 mb 0.00 in0.0 mm 0.00 in/hr0.0 mm/hr 0.00 in0.0 mm
04:51 AM 50.4°F10.2°C 18.4°F-7.6°C 28% 6.3 mph WNW10.1 kmh WNW 17.1 mph27.5 kmh 30.03 in1016.9 mb 0.00 in0.0 mm 0.00 in/hr0.0 mm/hr 0.00 in0.0 mm
04:41 AM 50.4°F10.2°C 18.4°F-7.6°C 28% 9.8 mph NW15.8 kmh NW 15.4 mph24.8 kmh 30.03 in1016.9 mb 0.00 in0.0 mm 0.00 in/hr0.0 mm/hr 0.00 in0.0 mm
04:31 AM 50.4°F10.2°C 18.4°F-7.6°C 28% 9.9 mph NW15.9 kmh NW 14.2 mph22.9 kmh 30.03 in1016.9 mb 0.00 in0.0 mm 0.00 in/hr0.0 mm/hr 0.00 in0.0 mm
04:21 AM 50.2°F10.1°C 18.3°F-7.6°C 28% 9.6 mph NW15.4 kmh NW 17.1 mph27.5 kmh 30.03 in1016.9 mb 0.00 in0.0 mm 0.00 in/hr0.0 mm/hr 0.00 in0.0 mm
04:11 AM 50.2°F10.1°C 18.3°F-7.6°C 28% 9.4 mph N15.1 kmh N 20.0 mph32.2 kmh 30.03 in1016.9 mb 0.00 in0.0 mm 0.00 in/hr0.0 mm/hr 0.00 in0.0 mm
04:01 AM 50.2°F10.1°C 18.3°F-7.6°C 28% 6.1 mph N9.8 kmh N 19.5 mph31.4 kmh 30.03 in1016.9 mb 0.00 in0.0 mm 0.00 in/hr0.0 mm/hr 0.00 in0.0 mm
03:51 AM 50.0°F10.0°C 18.1°F-7.7°C 28% 7.4 mph N11.9 kmh N 20.0 mph32.2 kmh 30.03 in1016.9 mb 0.00 in0.0 mm 0.00 in/hr0.0 mm/hr 0.00 in0.0 mm
03:41 AM 50.0°F10.0°C 18.1°F-7.7°C 28% 8.2 mph WNW13.2 kmh WNW 21.2 mph34.1 kmh 30.03 in1016.9 mb 0.00 in0.0 mm 0.00 in/hr0.0 mm/hr 0.00 in0.0 mm
03:31 AM 50.0°F10.0°C 18.1°F-7.7°C 28% 10.9 mph NNW17.5 kmh NNW 26.7 mph43.0 kmh 30.03 in1016.9 mb 0.00 in0.0 mm 0.00 in/hr0.0 mm/hr 0.00 in0.0 mm
03:21 AM 50.0°F10.0°C 18.1°F-7.7°C 28% 13.0 mph NW20.9 kmh NW 32.0 mph51.5 kmh 30.03 in1016.9 mb 0.00 in0.0 mm 0.00 in/hr0.0 mm/hr 0.00 in0.0 mm
03:11 AM 49.8°F9.9°C 18.0°F-7.8°C 28% 12.9 mph WNW20.8 kmh WNW 21.8 mph35.1 kmh 30.03 in1016.9 mb 0.00 in0.0 mm 0.00 in/hr0.0 mm/hr 0.00 in0.0 mm
03:01 AM 50.0°F10.0°C 18.1°F-7.7°C 28% 13.1 mph NE21.1 kmh NE 17.7 mph28.5 kmh 30.03 in1016.9 mb 0.00 in0.0 mm 0.00 in/hr0.0 mm/hr 0.00 in0.0 mm
02:51 AM 50.2°F10.1°C 18.3°F-7.6°C 28% 10.8 mph WNW17.4 kmh WNW 15.4 mph24.8 kmh 30.03 in1016.9 mb 0.00 in0.0 mm 0.00 in/hr0.0 mm/hr 0.00 in0.0 mm
02:41 AM 50.2°F10.1°C 18.3°F-7.6°C 28% 7.1 mph NE11.4 kmh NE 10.7 mph17.2 kmh 30.06 in1017.9 mb 0.00 in0.0 mm 0.00 in/hr0.0 mm/hr 0.00 in0.0 mm
02:31 AM 50.4°F10.2°C 18.4°F-7.6°C 28% 9.8 mph NW15.8 kmh NW 14.2 mph22.9 kmh 30.06 in1017.9 mb 0.00 in0.0 mm 0.00 in/hr0.0 mm/hr 0.00 in0.0 mm
02:21 AM 50.7°F10.4°C 18.8°F-7.3°C 28% 6.8 mph NW10.9 kmh NW 16.6 mph26.7 kmh 30.06 in1017.9 mb 0.00 in0.0 mm 0.00 in/hr0.0 mm/hr 0.00 in0.0 mm
02:11 AM 50.9°F10.5°C 18.9°F-7.3°C 28% 6.1 mph WSW9.8 kmh WSW 7.0 mph11.3 kmh 30.06 in1017.9 mb 0.00 in0.0 mm 0.00 in/hr0.0 mm/hr 0.00 in0.0 mm
02:01 AM 51.3°F10.7°C 19.2°F-7.1°C 28% 8.2 mph N13.2 kmh N 21.8 mph35.1 kmh 30.06 in1017.9 mb 0.00 in0.0 mm 0.00 in/hr0.0 mm/hr 0.00 in0.0 mm
01:51 AM 51.8°F11.0°C 18.8°F-7.3°C 27% 11.4 mph N18.3 kmh N 21.2 mph34.1 kmh 30.06 in1017.9 mb 0.00 in0.0 mm 0.00 in/hr0.0 mm/hr 0.00 in0.0 mm
01:41 AM 52.3°F11.3°C 19.3°F-7.1°C 27% 8.2 mph E13.2 kmh E 24.4 mph39.3 kmh 30.06 in1017.9 mb 0.00 in0.0 mm 0.00 in/hr0.0 mm/hr 0.00 in0.0 mm
01:31 AM 52.8°F11.6°C 19.7°F-6.8°C 27% 7.5 mph SSE12.1 kmh SSE 25.0 mph40.2 kmh 30.03 in1016.9 mb 0.00 in0.0 mm 0.00 in/hr0.0 mm/hr 0.00 in0.0 mm
01:21 AM 53.2°F11.8°C 20.1°F-6.6°C 27% 8.7 mph NE14.0 kmh NE 18.3 mph29.5 kmh 30.03 in1016.9 mb 0.00 in0.0 mm 0.00 in/hr0.0 mm/hr 0.00 in0.0 mm
01:11 AM 53.4°F11.9°C 20.2°F-6.6°C 27% 7.4 mph NNW11.9 kmh NNW 15.4 mph24.8 kmh 30.06 in1017.9 mb 0.00 in0.0 mm 0.00 in/hr0.0 mm/hr 0.00 in0.0 mm
01:01 AM 53.3°F11.8°C 20.1°F-6.6°C 27% 7.8 mph NE12.6 kmh NE 26.1 mph42.0 kmh 30.06 in1017.9 mb 0.00 in0.0 mm 0.00 in/hr0.0 mm/hr 0.00 in0.0 mm
12:51 AM 53.2°F11.8°C 20.1°F-6.6°C 27% 5.4 mph NW8.7 kmh NW 16.0 mph25.7 kmh 30.06 in1017.9 mb 0.00 in0.0 mm 0.00 in/hr0.0 mm/hr 0.00 in0.0 mm
12:41 AM 52.6°F11.4°C 19.5°F-6.9°C 27% 5.1 mph NW8.2 kmh NW 19.5 mph31.4 kmh 30.06 in1017.9 mb 0.00 in0.0 mm 0.00 in/hr0.0 mm/hr 0.00 in0.0 mm
12:31 AM 51.0°F10.6°C 21.3°F-5.9°C 31% 4.8 mph SW7.7 kmh SW 7.0 mph11.3 kmh 30.06 in1017.9 mb 0.00 in0.0 mm 0.00 in/hr0.0 mm/hr 0.00 in0.0 mm
12:21 AM 46.9°F8.3°C 24.4°F-4.2°C 41% 2.8 mph NNW4.5 kmh NNW 3.5 mph5.6 kmh 30.06 in1017.9 mb 0.00 in0.0 mm 0.00 in/hr0.0 mm/hr 0.00 in0.0 mm
12:11 AM 47.3°F8.5°C 24.2°F-4.3°C 40% 0.9 mph W1.4 kmh W 4.1 mph6.6 kmh 30.06 in1017.9 mb 0.00 in0.0 mm 0.00 in/hr0.0 mm/hr 0.00 in0.0 mm
12:01 AM 48.4°F9.1°C 24.5°F-4.2°C 39% 3.6 mph W5.8 kmh W 6.4 mph10.3 kmh 30.06 in1017.9 mb 0.00 in0.0 mm 0.00 in/hr0.0 mm/hr 0.00 in0.0 mm